createdAt,value
2022-07-30T00:20:28.131Z,100904.75
2022-07-30T00:28:02.140Z,100911.13
2022-07-30T02:42:35.808Z,100887.31
2022-07-30T02:46:34.433Z,100880.16
2022-07-30T02:53:23.937Z,100875.72
2022-07-30T03:00:57.475Z,100861.00
2022-07-30T03:03:45.476Z,100866.50
2022-07-30T03:06:36.286Z,100871.00
2022-07-30T03:09:10.399Z,100869.19
2022-07-30T03:11:41.303Z,100873.16
2022-07-30T03:14:08.810Z,100864.97
2022-07-30T03:18:07.405Z,100874.03
2022-07-30T03:20:35.902Z,100867.06
2022-07-30T03:26:26.988Z,100883.88
2022-07-30T03:29:13.827Z,100877.84
2022-07-30T03:32:05.965Z,100884.16
2022-07-30T03:34:52.160Z,100881.25
2022-07-30T03:38:55.685Z,100877.59
2022-07-30T03:41:09.198Z,100878.47
2022-07-30T03:44:21.506Z,100873.47
2022-07-30T03:47:20.293Z,100882.28
2022-07-30T03:50:30.217Z,100880.47
2022-07-30T03:56:04.605Z,100882.13
2022-07-30T03:58:49.847Z,100886.03
2022-07-30T04:05:50.089Z,100884.72
2022-07-30T04:08:28.841Z,100893.34
2022-07-30T04:11:40.974Z,100890.75
2022-07-30T04:14:52.639Z,100894.94
2022-07-30T04:21:34.096Z,100884.25
2022-07-30T04:24:16.706Z,100888.34
2022-07-30T04:27:17.470Z,100891.97
2022-07-30T04:30:23.379Z,100892.66
2022-07-30T04:33:19.930Z,100895.97
2022-07-30T04:35:52.243Z,100895.09
2022-07-30T04:38:59.258Z,100890.03
2022-07-30T04:47:50.920Z,100904.56
2022-07-30T04:49:04.704Z,100911.91
2022-07-30T04:52:10.765Z,100915.59
2022-07-30T04:55:36.605Z,100923.41
2022-07-30T04:58:50.386Z,100926.59
2022-07-30T05:01:51.294Z,100917.94
2022-07-30T05:04:22.340Z,100918.53
2022-07-30T05:11:01.689Z,100923.13
2022-07-30T05:13:34.757Z,100919.91
2022-07-30T05:16:51.966Z,100928.47
2022-07-30T05:27:15.262Z,100925.22
2022-07-30T05:28:05.376Z,100925.19
2022-07-30T05:31:17.078Z,100921.50
2022-07-30T05:37:48.867Z,100916.59
2022-07-30T05:40:43.031Z,100916.72
2022-07-30T05:47:02.436Z,100906.59
2022-07-30T05:50:40.145Z,100907.00
2022-07-30T05:52:48.579Z,100908.22
2022-07-30T05:53:18.102Z,100920.78
2022-07-30T05:56:37.054Z,100922.75
2022-07-30T05:59:53.579Z,100923.50
2022-07-30T06:03:12.214Z,100921.63
2022-07-30T06:15:44.673Z,100920.31
2022-07-30T06:37:11.717Z,100944.00
2022-07-30T06:40:23.710Z,100944.09
2022-07-30T06:43:17.788Z,100953.97
2022-07-30T06:46:25.246Z,100949.16
2022-07-30T06:48:52.466Z,100954.44
2022-07-30T06:52:02.221Z,100951.72
2022-07-30T06:54:29.623Z,100957.28
2022-07-30T06:57:03.103Z,100956.75
2022-07-30T06:59:30.801Z,100947.72
2022-07-30T07:02:50.131Z,100953.63
2022-07-30T07:05:23.935Z,100949.25
2022-07-30T07:08:48.786Z,100943.91
2022-07-30T07:11:24.301Z,100946.75
2022-07-30T07:13:54.306Z,100946.81
2022-07-30T07:16:36.890Z,100949.50
2022-07-30T07:19:10.001Z,100937.47
2022-07-30T07:25:57.157Z,100946.59
2022-07-30T07:28:29.992Z,100943.75
2022-07-30T07:31:04.196Z,100945.22
2022-07-30T07:33:48.094Z,100943.56
2022-07-30T07:36:59.497Z,100944.25
2022-07-30T07:40:00.668Z,100942.66
2022-07-30T07:42:27.832Z,100940.91
2022-07-30T07:44:58.299Z,100939.72
2022-07-30T07:48:20.581Z,100943.97
2022-07-30T07:50:57.094Z,100942.84
2022-07-30T07:53:37.642Z,100944.75
2022-07-30T07:57:10.353Z,100949.69
2022-07-30T07:59:44.959Z,100958.97
2022-07-30T08:02:12.842Z,100949.31
2022-07-30T08:04:43.222Z,100957.25
2022-07-30T08:10:03.049Z,100956.91
2022-07-30T08:12:39.863Z,100957.59
2022-07-30T08:15:29.803Z,100945.91
2022-07-30T08:18:11.635Z,100945.44
2022-07-30T08:21:22.996Z,100947.00
2022-07-30T08:23:56.489Z,100953.72
2022-07-30T08:26:23.470Z,100951.34
2022-07-30T08:29:16.773Z,100946.75
2022-07-30T08:31:47.714Z,100946.22
2022-07-30T08:34:21.031Z,100942.50
2022-07-30T08:37:31.548Z,100944.41
2022-07-30T08:40:02.858Z,100943.19
2022-07-30T08:43:21.110Z,100942.97
2022-07-30T08:48:22.969Z,100944.09
2022-07-30T08:51:37.870Z,100951.38
2022-07-30T08:54:07.878Z,100958.09
2022-07-30T08:56:35.539Z,100951.78
2022-07-30T08:59:03.649Z,100955.16
2022-07-30T09:01:42.431Z,100947.16
2022-07-30T09:04:09.502Z,100956.78
2022-07-30T09:09:51.063Z,100952.31
2022-07-30T09:12:42.052Z,100948.41
2022-07-30T09:16:05.404Z,100943.38
2022-07-30T09:18:40.530Z,100946.00
2022-07-30T09:21:43.162Z,100947.31
2022-07-30T09:24:13.026Z,100947.19
2022-07-30T09:27:04.731Z,100946.53
2022-07-30T09:29:44.704Z,100949.03
2022-07-30T09:32:22.567Z,100948.16
2022-07-30T09:34:49.763Z,100932.50
2022-07-30T09:37:26.131Z,100938.16
2022-07-30T09:39:59.529Z,100936.38
2022-07-30T09:42:29.065Z,100935.41
2022-07-30T09:45:15.316Z,100938.66
2022-07-30T09:47:49.447Z,100943.69
2022-07-30T09:53:12.288Z,100942.72
2022-07-30T09:55:42.343Z,100942.47
2022-07-30T09:58:20.017Z,100938.06
2022-07-30T10:01:13.081Z,100935.19
2022-07-30T10:03:49.043Z,100939.38
2022-07-30T10:06:19.172Z,100940.69
2022-07-30T10:08:53.857Z,100941.41
2022-07-30T10:11:24.377Z,100945.78
2022-07-30T10:13:57.266Z,100943.59
2022-07-30T10:16:31.062Z,100942.19
2022-07-30T10:19:03.977Z,100951.66
2022-07-30T10:21:37.996Z,100943.63
2022-07-30T10:26:50.948Z,100941.31
2022-07-30T10:29:56.545Z,100940.41
2022-07-30T10:32:39.063Z,100943.38
2022-07-30T10:35:34.727Z,100943.81
2022-07-30T10:38:30.379Z,100941.28
2022-07-30T10:42:08.409Z,100935.31
2022-07-30T10:45:17.454Z,100942.88
2022-07-30T10:47:56.470Z,100932.44
2022-07-30T10:50:29.503Z,100936.56
2022-07-30T10:54:06.399Z,100941.06
2022-07-30T10:56:25.815Z,100930.94
2022-07-30T10:59:23.980Z,100933.34
2022-07-30T11:02:03.055Z,100930.81
2022-07-30T11:04:34.056Z,100939.56
2022-07-30T11:07:29.548Z,100930.47
2022-07-30T11:10:08.729Z,100935.44
2022-07-30T11:12:52.831Z,100941.13
2022-07-30T11:15:23.861Z,100932.41
2022-07-30T11:18:11.418Z,100933.44
2022-07-30T11:21:14.613Z,100927.56
2022-07-30T11:23:54.772Z,100927.50
2022-07-30T11:26:41.129Z,100934.00
2022-07-30T11:29:35.513Z,100935.63
2022-07-30T11:33:21.900Z,100931.88
2022-07-30T11:35:34.466Z,100932.03
2022-07-30T11:38:48.764Z,100939.00
2022-07-30T11:41:16.578Z,100928.09
2022-07-30T11:43:46.649Z,100935.63
2022-07-30T11:46:29.223Z,100934.81
2022-07-30T11:49:08.231Z,100937.91
2022-07-30T11:51:51.014Z,100933.72
2022-07-30T11:54:21.611Z,100936.50
2022-07-30T11:57:04.770Z,100935.28
2022-07-30T12:00:40.084Z,100939.84
2022-07-30T12:03:16.483Z,100941.72
2022-07-30T12:05:57.882Z,100942.66
2022-07-30T12:09:14.099Z,100942.63
2022-07-30T12:11:41.383Z,100934.28
2022-07-30T12:14:11.855Z,100936.31
2022-07-30T12:16:52.376Z,100938.03
2022-07-30T12:19:19.806Z,100943.47
2022-07-30T12:21:53.278Z,100928.84
2022-07-30T12:24:26.677Z,100933.22
2022-07-30T12:27:08.083Z,100927.31
2022-07-30T12:29:41.640Z,100936.97
2022-07-30T12:32:19.160Z,100931.00
2022-07-30T12:35:51.066Z,100941.50
2022-07-30T12:38:21.563Z,100930.47
2022-07-30T12:41:00.270Z,100934.94
2022-07-30T12:43:59.391Z,100939.88
2022-07-30T12:46:43.526Z,100938.41
2022-07-30T12:49:21.452Z,100934.03
2022-07-30T12:51:59.816Z,100938.91
2022-07-30T12:54:31.245Z,100936.22
2022-07-30T12:57:06.840Z,100940.75
2022-07-30T12:59:40.737Z,100934.47
2022-07-30T13:02:08.187Z,100938.78
2022-07-30T13:05:10.233Z,100929.00
2022-07-30T13:08:05.999Z,100938.66
2022-07-30T13:10:39.181Z,100937.66
2022-07-30T13:13:06.349Z,100935.38
2022-07-30T13:15:35.932Z,100938.09
2022-07-30T13:18:04.748Z,100944.13
2022-07-30T13:20:32.015Z,100942.13
2022-07-30T13:23:01.996Z,100937.66
2022-07-30T13:25:38.766Z,100936.97
2022-07-30T13:28:13.482Z,100936.81
2022-07-30T13:30:43.891Z,100940.72
2022-07-30T13:33:16.494Z,100930.44
2022-07-30T13:35:43.847Z,100937.19
2022-07-30T13:38:24.936Z,100937.22
2022-07-30T13:40:52.978Z,100933.63
2022-07-30T13:43:29.517Z,100925.88
2022-07-30T13:46:03.198Z,100937.69
2022-07-30T13:48:35.858Z,100925.22
2022-07-30T13:51:05.583Z,100944.16
2022-07-30T13:53:32.948Z,100926.84
2022-07-30T13:56:00.307Z,100930.44
2022-07-30T13:58:27.775Z,100927.22
2022-07-30T14:00:58.243Z,100928.44
2022-07-30T14:03:28.736Z,100919.94
2022-07-30T14:06:10.894Z,100920.22
2022-07-30T14:08:42.290Z,100917.16
2022-07-30T14:11:09.369Z,100918.94
2022-07-30T14:13:36.475Z,100906.38
2022-07-30T14:16:35.183Z,100905.56
2022-07-30T14:18:57.608Z,100905.56
2022-07-30T14:21:33.454Z,100906.88
2022-07-30T14:24:00.724Z,100909.28
2022-07-30T14:26:36.627Z,100909.78
2022-07-30T14:31:57.439Z,100907.75
2022-07-30T14:34:27.488Z,100899.28
2022-07-30T14:37:00.691Z,100896.00
2022-07-30T14:42:09.237Z,100896.59
2022-07-30T14:44:48.265Z,100894.84
2022-07-30T14:47:21.500Z,100900.28
2022-07-30T14:49:48.845Z,100897.19
2022-07-30T14:52:15.918Z,100904.28
2022-07-30T14:54:43.056Z,100902.16
2022-07-30T14:57:10.697Z,100898.03
2022-07-30T14:59:38.088Z,100892.25
2022-07-30T15:02:06.087Z,100904.41
2022-07-30T15:04:41.364Z,100908.72
2022-07-30T15:07:22.633Z,100905.38
2022-07-30T15:09:49.926Z,100904.50
2022-07-30T15:12:45.846Z,100909.59
2022-07-30T15:15:24.780Z,100899.78
2022-07-30T15:17:55.898Z,100906.59
2022-07-30T15:20:25.719Z,100901.09
2022-07-30T15:22:53.545Z,100903.22
2022-07-30T15:25:22.134Z,100905.66
2022-07-30T15:27:49.606Z,100899.53
2022-07-30T15:30:16.634Z,100911.31
2022-07-30T15:32:46.299Z,100905.28
2022-07-30T15:35:28.595Z,100899.66
2022-07-30T15:37:58.950Z,100897.88
2022-07-30T15:40:34.423Z,100903.84
2022-07-30T15:43:01.463Z,100886.88
2022-07-30T15:45:51.006Z,100885.75
2022-07-30T15:48:26.543Z,100877.81
2022-07-30T15:51:03.302Z,100885.47
2022-07-30T15:53:32.523Z,100880.41
2022-07-30T15:56:20.762Z,100887.25
2022-07-30T15:58:58.779Z,100894.81
2022-07-30T16:01:35.673Z,100884.84
2022-07-30T16:04:05.853Z,100885.38
2022-07-30T16:07:08.501Z,100875.53
2022-07-30T16:11:36.962Z,100884.66
2022-07-30T16:13:10.083Z,100883.66
2022-07-30T16:15:49.067Z,100878.22
2022-07-30T16:18:29.954Z,100882.84
2022-07-30T16:21:14.636Z,100881.69
2022-07-30T16:23:43.712Z,100882.00
2022-07-30T16:27:16.833Z,100883.16
2022-07-30T16:29:47.005Z,100882.91
2022-07-30T16:32:20.225Z,100884.72
2022-07-30T16:34:47.291Z,100887.25
2022-07-30T16:37:40.510Z,100893.66
2022-07-30T16:40:10.949Z,100890.50
2022-07-30T16:42:57.392Z,100893.59
2022-07-30T16:48:13.900Z,100897.53
2022-07-30T16:50:48.574Z,100896.03
2022-07-30T16:53:30.531Z,100897.84
2022-07-30T16:56:21.087Z,100903.31
2022-07-30T16:59:08.545Z,100902.38
2022-07-30T17:02:19.778Z,100898.91
2022-07-30T17:04:52.877Z,100900.19
2022-07-30T17:07:25.253Z,100905.88
2022-07-30T17:10:43.789Z,100900.53
2022-07-30T17:13:11.045Z,100899.81
2022-07-30T17:15:38.933Z,100905.63
2022-07-30T17:18:31.838Z,100906.00
2022-07-30T17:21:23.755Z,100904.28
2022-07-30T17:24:15.062Z,100912.47
2022-07-30T17:26:43.889Z,100901.06
2022-07-30T17:29:50.204Z,100912.22
2022-07-30T17:32:20.062Z,100907.84
2022-07-30T17:38:02.617Z,100913.31
2022-07-30T17:40:44.854Z,100918.78
2022-07-30T17:43:16.081Z,100925.97
2022-07-30T17:46:01.096Z,100919.94
2022-07-30T17:48:34.506Z,100919.16
2022-07-30T17:51:21.632Z,100910.78
2022-07-30T17:56:52.240Z,100910.91
2022-07-30T17:59:19.455Z,100924.56
2022-07-30T18:02:29.304Z,100930.00
2022-07-30T18:04:56.759Z,100917.19
2022-07-30T18:07:27.654Z,100923.31
2022-07-30T18:09:55.351Z,100925.09
2022-07-30T18:13:22.444Z,100922.03
2022-07-30T18:22:06.847Z,100931.84
2022-07-30T18:25:18.760Z,100929.00
2022-07-30T18:28:05.151Z,100945.72
2022-07-30T18:30:42.033Z,100936.22
2022-07-30T18:33:31.287Z,100935.81
2022-07-30T18:35:58.751Z,100941.38
2022-07-30T18:38:26.111Z,100929.78
2022-07-30T18:40:59.423Z,100942.91
2022-07-30T18:47:08.957Z,100945.22
2022-07-30T18:50:14.423Z,100947.88
2022-07-30T18:53:54.592Z,100948.66
2022-07-30T18:56:32.622Z,100952.44
2022-07-30T18:59:14.911Z,100952.91
2022-07-30T19:02:11.412Z,100958.16
2022-07-30T19:04:38.940Z,100964.06
2022-07-30T19:07:08.503Z,100969.56
2022-07-30T19:10:32.915Z,100965.84
2022-07-30T19:13:02.454Z,100967.78
2022-07-30T19:15:33.293Z,100973.25
2022-07-30T19:18:07.705Z,100975.44
2022-07-30T19:20:35.184Z,100977.94
2022-07-30T19:23:08.825Z,100979.41
2022-07-30T19:26:19.266Z,100987.78
2022-07-30T19:28:58.783Z,100981.72
2022-07-30T19:31:45.216Z,100979.88
2022-07-30T19:34:15.610Z,100985.31
2022-07-30T19:40:44.844Z,100995.31
2022-07-30T19:43:57.652Z,100997.97
2022-07-30T19:47:01.843Z,101003.31
2022-07-30T19:52:25.514Z,100996.75
2022-07-30T19:55:35.496Z,101000.25
2022-07-30T20:05:20.600Z,101010.00
2022-07-30T20:11:35.059Z,101015.59
2022-07-30T20:14:04.916Z,101020.56
2022-07-30T20:17:39.007Z,101020.72
2022-07-30T20:20:34.122Z,101007.94
2022-07-30T20:23:04.510Z,101017.00
2022-07-30T20:30:10.332Z,101012.00
2022-07-30T20:50:49.221Z,101020.72
2022-07-30T21:11:51.779Z,101003.13
2022-07-30T21:17:58.930Z,101004.00
2022-07-30T21:21:04.995Z,101001.53
2022-07-30T21:24:37.742Z,101001.13
2022-07-30T21:27:43.065Z,100999.13
2022-07-30T21:30:11.893Z,101003.38
2022-07-30T21:32:39.761Z,100999.03
2022-07-30T21:35:42.684Z,101000.66
2022-07-30T21:39:20.342Z,101000.69
2022-07-30T21:42:25.903Z,100997.69
2022-07-30T21:49:44.984Z,100998.25
2022-07-30T21:52:21.309Z,100999.78
2022-07-30T21:55:04.156Z,101003.09
2022-07-30T22:01:22.556Z,101005.63
2022-07-30T22:04:47.507Z,101012.16
2022-07-30T22:24:36.546Z,100998.50
2022-07-30T22:27:56.278Z,100999.16
2022-07-30T22:31:39.591Z,100984.47
2022-07-30T22:35:13.071Z,100994.78
2022-07-30T22:55:29.909Z,100988.84
2022-07-30T23:04:11.621Z,100985.28
2022-07-30T23:07:05.514Z,100980.84
2022-07-30T23:29:18.731Z,100975.75
2022-07-30T23:58:48.801Z,100973.50
